Главная страница
METAR-TAF:

METAR-TAF

Аэропорты :

Джибути, Джибути

широта: 11-33N, долгота: 043-10E, высота над уровнем моря: 49 м

Текущие метеонаблюдения

Эта сводка был подготовлена 3 часа и 33 минут назад, в 11:00 UTC
Ветер 11 Узел от восточно-северо-восточный
Температура 34°C
Влажность 60%
Давление 1009 hPa
Видимость 10 км и более
Отдельные облака на высоте 2300 фута

METAR: HDAM 251100Z 06011KT 9999 SCT023 34/25 Q1009

Время: 17:33 (14:33 UTC)

Прогноз

Эта сводка был подготовлена 3 часа и 33 минут назад, в 11:00 UTC
Прогноз действительный с 25-го 12 UTC до 26-го 15 UTC
Ветер 10 Узел от восточный
Видимость 10 км и более
небольшая облачность на высоте 3000 фута, Кучево-дождевые.
изменения
С 25-го 15 UTC до 25-го 18 UTC
Ветер 3 Узел переменных направлений
небольшая облачность на высоте 2300 фута
изменения
С 26-го 00 UTC до 26-го 06 UTC
Ветер Узел от северный

TAF: HDAM 251100Z 2512/2615 08010KT 9999 FEW030CB BECMG 2515/2518 VRB03KT FEW023 BECMG 2600/2606 00000KT

Метеонаблюдения и прогнозы для более 4000 аэропортов (сводки METAR и TAF).

Имеющиеся станции представлены на карте желтыми и красными точками.

Чтобы увидеть название станции, наведите на нее мышь.

Затем щелкните, чтобы увидеть метеонаблюдения и метеопрогнозы.

Управление картой: чтобы увеличить масштаб, щелкните зеленые кнопки с черным крестиком; чтобы уменьшить масштаб, щелкните зеленую кнопку с тире; для просмотра соседних карт щелкайте зеленые стрелки.


METAR-TAF: